createdAt,value
2023-05-01T00:01:06.391Z,101789.56
2023-05-01T00:03:35.352Z,101769.28
2023-05-01T00:06:05.752Z,101777.88
2023-05-01T00:08:36.972Z,101749.03
2023-05-01T00:11:09.963Z,101760.59
2023-05-01T00:13:39.485Z,101750.84
2023-05-01T00:16:10.266Z,101758.66
2023-05-01T00:18:38.803Z,101748.94
2023-05-01T00:21:07.506Z,101773.56
2023-05-01T00:23:38.010Z,101773.44
2023-05-01T00:26:08.251Z,101764.66
2023-05-01T00:28:36.728Z,101746.78
2023-05-01T00:31:05.003Z,101752.03
2023-05-01T00:33:35.103Z,101748.53
2023-05-01T00:36:03.482Z,101751.34
2023-05-01T00:38:32.617Z,101739.81
2023-05-01T00:41:00.911Z,101741.56
2023-05-01T00:43:30.836Z,101753.13
2023-05-01T00:45:59.357Z,101752.25
2023-05-01T00:48:29.922Z,101720.47
2023-05-01T00:51:02.347Z,101743.28
2023-05-01T00:53:31.066Z,101753.88
2023-05-01T00:56:00.132Z,101735.97
2023-05-01T00:58:28.743Z,101706.91
2023-05-01T01:00:59.016Z,101738.69
2023-05-01T01:03:27.718Z,101736.13
2023-05-01T01:06:04.493Z,101734.31
2023-05-01T01:08:40.482Z,101736.25
2023-05-01T01:11:20.036Z,101734.47
2023-05-01T01:13:58.866Z,101727.38
2023-05-01T01:16:34.130Z,101729.06
2023-05-01T01:19:17.218Z,101730.75
2023-05-01T01:21:48.048Z,101726.38
2023-05-01T01:24:47.829Z,101719.41
2023-05-01T01:27:41.480Z,101709.81
2023-05-01T01:30:43.716Z,101705.31
2023-05-01T01:33:50.714Z,101699.19
2023-05-01T01:36:22.754Z,101694.78
2023-05-01T01:39:03.428Z,101697.50
2023-05-01T01:41:34.516Z,101699.28
2023-05-01T01:44:07.722Z,101697.47
2023-05-01T01:46:42.598Z,101692.28
2023-05-01T01:49:20.884Z,101697.63
2023-05-01T01:51:53.007Z,101687.16
2023-05-01T01:54:28.106Z,101686.28
2023-05-01T01:56:58.518Z,101681.84
2023-05-01T01:59:32.738Z,101678.34
2023-05-01T02:02:03.596Z,101667.78
2023-05-01T02:04:35.635Z,101662.53
2023-05-01T02:07:07.889Z,101665.09
2023-05-01T02:09:38.671Z,101661.66
2023-05-01T02:12:08.026Z,101660.75
2023-05-01T02:14:38.483Z,101636.94
2023-05-01T02:17:08.300Z,101657.16
2023-05-01T02:19:40.231Z,101652.00
2023-05-01T02:22:10.002Z,101643.25
2023-05-01T02:24:39.384Z,101643.19
2023-05-01T02:27:12.801Z,101646.63
2023-05-01T02:29:40.987Z,101612.28
2023-05-01T02:32:09.210Z,101622.09
2023-05-01T02:34:39.375Z,101629.16
2023-05-01T02:37:09.669Z,101637.22
2023-05-01T02:39:38.412Z,101630.09
2023-05-01T02:42:09.822Z,101627.47
2023-05-01T02:44:44.906Z,101616.00
2023-05-01T02:47:17.252Z,101623.03
2023-05-01T02:49:48.180Z,101614.25
2023-05-01T02:52:20.885Z,101616.91
2023-05-01T02:54:50.061Z,101602.75
2023-05-01T02:57:20.396Z,101604.47
2023-05-01T02:59:48.856Z,101605.44
2023-05-01T03:02:17.430Z,101592.22
2023-05-01T03:04:52.372Z,101594.06
2023-05-01T03:07:20.472Z,101592.28
2023-05-01T03:09:48.678Z,101588.84
2023-05-01T03:12:16.795Z,101592.31
2023-05-01T03:14:45.455Z,101591.38
2023-05-01T03:17:13.589Z,101571.13
2023-05-01T03:19:42.673Z,101565.88
2023-05-01T03:22:12.362Z,101560.66
2023-05-01T03:24:40.371Z,101564.13
2023-05-01T03:27:08.982Z,101562.38
2023-05-01T03:29:38.351Z,101555.28
2023-05-01T03:32:07.181Z,101544.72
2023-05-01T03:34:35.509Z,101551.84
2023-05-01T03:37:03.631Z,101547.50
2023-05-01T03:39:33.121Z,101535.94
2023-05-01T03:42:01.330Z,101540.41
2023-05-01T03:44:29.910Z,101523.72
2023-05-01T03:47:00.961Z,101535.81
2023-05-01T03:49:29.144Z,101525.38
2023-05-01T03:51:57.538Z,101528.88
2023-05-01T03:54:26.050Z,101528.84
2023-05-01T03:56:55.606Z,101522.69
2023-05-01T03:59:23.809Z,101509.47
2023-05-01T04:01:52.046Z,101528.81
2023-05-01T04:04:20.819Z,101526.13
2023-05-01T04:06:49.811Z,101514.03
2023-05-01T04:09:17.972Z,101499.09
2023-05-01T04:11:46.963Z,101470.94
2023-05-01T04:14:16.606Z,101500.84
2023-05-01T04:16:44.683Z,101504.41
2023-05-01T04:19:12.953Z,101479.78
2023-05-01T04:21:41.450Z,101500.91
2023-05-01T04:24:09.568Z,101486.88
2023-05-01T04:26:39.281Z,101490.47
2023-05-01T04:29:07.665Z,101490.41
2023-05-01T04:31:37.621Z,101487.78
2023-05-01T04:34:05.781Z,101492.16
2023-05-01T04:36:34.117Z,101479.88
2023-05-01T04:39:02.644Z,101478.13
2023-05-01T04:41:30.946Z,101472.88
2023-05-01T04:43:59.138Z,101476.31
2023-05-01T04:46:27.425Z,101474.56
2023-05-01T04:48:56.987Z,101457.91
2023-05-01T04:51:25.473Z,101450.03
2023-05-01T04:53:54.217Z,101451.81
2023-05-01T04:56:22.701Z,101444.78
2023-05-01T04:58:52.291Z,101447.50
2023-05-01T05:01:20.432Z,101442.19
2023-05-01T05:03:50.195Z,101439.56
2023-05-01T05:06:20.132Z,101428.97
2023-05-01T05:08:54.113Z,101436.06
2023-05-01T05:11:22.421Z,101435.19
2023-05-01T05:13:50.537Z,101432.53
2023-05-01T05:16:18.801Z,101431.63
2023-05-01T05:18:47.302Z,101421.13
2023-05-01T05:21:15.653Z,101418.53
2023-05-01T05:23:48.351Z,101422.00
2023-05-01T05:26:16.518Z,101415.00
2023-05-01T05:28:45.292Z,101421.97
2023-05-01T05:31:13.600Z,101418.50
2023-05-01T05:33:41.817Z,101418.53
2023-05-01T05:36:09.943Z,101414.16
2023-05-01T05:38:38.798Z,101407.97
2023-05-01T05:41:08.563Z,101411.59
2023-05-01T05:43:37.444Z,101402.78
2023-05-01T05:46:06.114Z,101399.25
2023-05-01T05:48:34.635Z,101408.03
2023-05-01T05:51:02.718Z,101393.09
2023-05-01T05:53:30.908Z,101392.28
2023-05-01T05:55:59.230Z,101402.81
2023-05-01T05:58:29.003Z,101388.72
2023-05-01T06:00:57.428Z,101371.13
2023-05-01T06:03:27.335Z,101370.31
2023-05-01T06:05:56.179Z,101385.25
2023-05-01T06:08:24.852Z,101374.72
2023-05-01T06:10:55.518Z,101376.50
2023-05-01T06:13:23.756Z,101377.34
2023-05-01T06:15:53.509Z,101365.03
2023-05-01T06:18:21.803Z,101376.47
2023-05-01T06:20:49.953Z,101357.13
2023-05-01T06:23:19.072Z,101348.34
2023-05-01T06:25:48.820Z,101358.88
2023-05-01T06:28:17.199Z,101357.13
2023-05-01T06:30:45.360Z,101343.06
2023-05-01T06:33:15.105Z,101350.06
2023-05-01T06:35:43.356Z,101336.00
2023-05-01T06:38:11.792Z,101327.19
2023-05-01T06:40:41.806Z,101297.28
2023-05-01T06:43:13.339Z,101310.44
2023-05-01T06:45:42.213Z,101317.44
2023-05-01T06:48:12.380Z,101317.41
2023-05-01T06:50:42.190Z,101313.84
2023-05-01T06:53:10.676Z,101288.34
2023-05-01T06:55:38.773Z,101310.31
2023-05-01T06:58:16.524Z,101309.34
2023-05-01T07:00:51.911Z,101309.41
2023-05-01T07:03:20.534Z,101299.69
2023-05-01T07:05:50.592Z,101296.94
2023-05-01T07:08:19.769Z,101297.00
2023-05-01T07:10:48.069Z,101285.47
2023-05-01T07:13:16.266Z,101286.28
2023-05-01T07:15:44.367Z,101289.75
2023-05-01T07:18:13.837Z,101288.88
2023-05-01T07:20:42.408Z,101284.47
2023-05-01T07:23:11.992Z,101282.69
2023-05-01T07:25:41.610Z,101273.94
2023-05-01T07:28:09.715Z,101272.09
2023-05-01T07:30:37.936Z,101256.44
2023-05-01T07:33:06.931Z,101273.09
2023-05-01T07:35:35.093Z,101270.47
2023-05-01T07:38:03.735Z,101260.75
2023-05-01T07:40:34.746Z,101268.59
2023-05-01T07:43:02.825Z,101250.03
2023-05-01T07:45:30.945Z,101261.59
2023-05-01T07:48:04.024Z,101243.88
2023-05-01T07:50:32.242Z,101236.97
2023-05-01T07:53:00.482Z,101249.25
2023-05-01T07:55:29.763Z,101240.50
2023-05-01T07:57:59.260Z,101245.03
2023-05-01T08:00:28.179Z,101242.41
2023-05-01T08:02:56.722Z,101215.06
2023-05-01T08:05:31.790Z,101218.50
2023-05-01T08:08:00.106Z,101231.69
2023-05-01T08:10:28.842Z,101209.59
2023-05-01T08:12:58.647Z,101227.31
2023-05-01T08:15:28.976Z,101217.66
2023-05-01T08:17:57.139Z,101219.34
2023-05-01T08:20:25.955Z,101212.25
2023-05-01T08:22:54.078Z,101212.28
2023-05-01T08:25:22.162Z,101213.97
2023-05-01T08:27:50.861Z,101215.75
2023-05-01T08:30:20.803Z,101213.94
2023-05-01T08:32:49.276Z,101203.25
2023-05-01T08:35:17.718Z,101187.53
2023-05-01T08:37:48.291Z,101201.41
2023-05-01T08:40:17.045Z,101203.13
2023-05-01T08:42:46.170Z,101201.31
2023-05-01T08:45:17.116Z,101211.88
2023-05-01T08:47:47.809Z,101203.22
2023-05-01T08:50:19.119Z,101200.38
2023-05-01T08:52:54.261Z,101189.09
2023-05-01T08:55:23.096Z,101194.34
2023-05-01T08:57:52.624Z,101192.53
2023-05-01T09:00:22.298Z,101187.28
2023-05-01T09:02:53.560Z,101185.41
2023-05-01T09:05:22.498Z,101170.59
2023-05-01T09:07:51.021Z,101187.34
2023-05-01T09:10:20.399Z,101174.88
2023-05-01T09:12:56.863Z,101157.41
2023-05-01T09:15:29.136Z,101166.25
2023-05-01T09:18:03.734Z,101171.50
2023-05-01T09:20:33.300Z,101180.22
2023-05-01T09:23:01.479Z,101172.28
2023-05-01T09:25:32.489Z,101164.44
2023-05-01T09:28:00.782Z,101169.56
2023-05-01T09:30:32.738Z,101179.38
2023-05-01T09:33:12.979Z,101157.47
2023-05-01T09:35:52.823Z,101138.34
2023-05-01T09:38:22.758Z,101169.81
2023-05-01T09:40:51.692Z,101160.28
2023-05-01T09:43:30.073Z,101159.25
2023-05-01T09:46:06.968Z,101138.09
2023-05-01T09:48:40.624Z,101159.28
2023-05-01T09:51:27.153Z,101141.69
2023-05-01T09:54:00.464Z,101161.81
2023-05-01T09:56:30.542Z,101146.69
2023-05-01T09:59:03.082Z,101135.34
2023-05-01T10:01:41.270Z,101121.53
2023-05-01T10:04:11.889Z,101138.91
2023-05-01T10:06:41.158Z,101139.59
2023-05-01T10:09:17.824Z,101131.81
2023-05-01T10:11:50.411Z,101130.84
2023-05-01T10:14:18.808Z,101118.59
2023-05-01T10:16:47.051Z,101119.28
2023-05-01T10:19:18.801Z,101102.53
2023-05-01T10:21:46.962Z,101109.34
2023-05-01T10:24:17.094Z,101105.91
2023-05-01T10:26:46.057Z,101079.91
2023-05-01T10:29:14.635Z,101099.03
2023-05-01T10:31:43.087Z,101098.03
2023-05-01T10:34:16.589Z,101089.94
2023-05-01T10:36:50.884Z,101091.53
2023-05-01T10:39:32.691Z,101088.75
2023-05-01T10:42:05.720Z,101095.53
2023-05-01T10:44:38.270Z,101077.88
2023-05-01T10:47:44.029Z,101069.91
2023-05-01T10:50:13.648Z,101062.72
2023-05-01T10:53:20.389Z,101066.41
2023-05-01T10:55:50.212Z,101059.22
2023-05-01T10:59:03.242Z,101060.53
2023-05-01T11:01:33.716Z,101056.13
2023-05-01T11:04:04.557Z,101058.06
2023-05-01T11:06:33.812Z,101047.38
2023-05-01T11:09:04.980Z,101030.56
2023-05-01T11:11:51.277Z,101044.25
2023-05-01T11:14:19.680Z,101039.84
2023-05-01T11:16:49.146Z,101033.75
2023-05-01T11:19:50.501Z,101024.22
2023-05-01T11:22:19.578Z,101035.47
2023-05-01T11:24:50.167Z,101017.91
2023-05-01T11:27:18.582Z,101010.84
2023-05-01T11:29:49.754Z,101025.84
2023-05-01T11:32:21.568Z,101021.94
2023-05-01T11:34:51.546Z,101030.25
2023-05-01T11:37:20.237Z,101034.34
2023-05-01T11:39:53.935Z,101025.78
2023-05-01T11:42:23.808Z,101014.28
2023-05-01T11:45:11.065Z,101012.69
2023-05-01T11:47:39.651Z,100991.97
2023-05-01T11:50:09.673Z,101015.69
2023-05-01T11:52:46.014Z,101016.13
2023-05-01T11:55:16.564Z,101014.22
2023-05-01T11:57:50.279Z,101007.72
2023-05-01T12:00:28.278Z,101000.66
2023-05-01T12:02:58.698Z,100995.88
2023-05-01T12:05:30.652Z,100998.38
2023-05-01T12:08:13.407Z,100986.47
2023-05-01T12:10:44.678Z,100983.19
2023-05-01T12:13:15.040Z,100990.25
2023-05-01T12:15:45.265Z,100977.69
2023-05-01T12:18:14.743Z,100974.41
2023-05-01T12:20:45.063Z,100964.78
2023-05-01T12:23:16.249Z,100975.88
2023-05-01T12:25:47.372Z,100977.06
2023-05-01T12:28:18.691Z,100967.25
2023-05-01T12:30:47.857Z,100971.84
2023-05-01T12:33:17.805Z,100965.41
2023-05-01T12:35:48.963Z,100948.19
2023-05-01T12:38:21.427Z,100941.03
2023-05-01T12:40:57.804Z,100949.53
2023-05-01T12:43:32.714Z,100938.13
2023-05-01T12:46:05.277Z,100932.03
2023-05-01T12:48:43.176Z,100919.59
2023-05-01T12:51:19.535Z,100944.09
2023-05-01T12:53:49.230Z,100923.81
2023-05-01T12:56:27.096Z,100907.00
2023-05-01T12:58:57.862Z,100925.44
2023-05-01T13:01:27.617Z,100921.28
2023-05-01T13:03:58.069Z,100894.91
2023-05-01T13:06:34.805Z,100904.91
2023-05-01T13:09:11.020Z,100905.09
2023-05-01T13:11:43.984Z,100912.16
2023-05-01T13:14:12.527Z,100893.66
2023-05-01T13:16:49.958Z,100895.34
2023-05-01T13:19:28.802Z,100899.75
2023-05-01T13:21:58.331Z,100901.56
2023-05-01T13:24:36.694Z,100907.88
2023-05-01T13:27:07.918Z,100912.44
2023-05-01T13:29:36.509Z,100900.09
2023-05-01T13:32:07.710Z,100901.06
2023-05-01T13:34:37.701Z,100903.75
2023-05-01T13:37:05.876Z,100907.50
2023-05-01T13:39:34.132Z,100885.06
2023-05-01T13:42:07.623Z,100900.78
2023-05-01T13:44:44.699Z,100902.59
2023-05-01T13:47:17.446Z,100895.69
2023-05-01T13:49:48.264Z,100897.41
2023-05-01T13:52:18.596Z,100900.88
2023-05-01T13:54:48.221Z,100893.19
2023-05-01T13:57:18.109Z,100899.16
2023-05-01T13:59:48.378Z,100892.06
2023-05-01T14:02:21.956Z,100885.97
2023-05-01T14:04:50.512Z,100878.16
2023-05-01T14:07:20.166Z,100889.69
2023-05-01T14:09:53.627Z,100874.47
2023-05-01T14:12:28.120Z,100872.88
2023-05-01T14:14:57.192Z,100878.03
2023-05-01T14:17:31.562Z,100863.84
2023-05-01T14:19:59.862Z,100861.19
2023-05-01T14:22:31.384Z,100874.34
2023-05-01T14:25:01.096Z,100873.44
2023-05-01T14:27:30.757Z,100875.97
2023-05-01T14:29:59.707Z,100872.47
2023-05-01T14:32:30.147Z,100870.81
2023-05-01T14:34:59.818Z,100865.59
2023-05-01T14:37:28.628Z,100874.34
2023-05-01T14:39:57.537Z,100872.53
2023-05-01T14:42:26.574Z,100861.19
2023-05-01T14:44:56.865Z,100875.88
2023-05-01T14:47:26.864Z,100866.97
2023-05-01T14:49:55.300Z,100861.44
2023-05-01T14:52:23.459Z,100860.91
2023-05-01T14:54:53.284Z,100862.63
2023-05-01T14:57:21.442Z,100859.84
2023-05-01T15:03:44.107Z,100843.97
2023-05-01T15:06:14.159Z,100849.22
2023-05-01T15:08:43.663Z,100851.06
2023-05-01T15:11:14.761Z,100848.56
2023-05-01T15:13:44.389Z,100846.75
2023-05-01T15:16:12.705Z,100844.16
2023-05-01T15:18:42.509Z,100837.22
2023-05-01T15:21:11.020Z,100828.97
2023-05-01T15:23:39.620Z,100821.06
2023-05-01T15:26:07.927Z,100812.44
2023-05-01T15:28:36.407Z,100788.06
2023-05-01T15:31:04.657Z,100808.31
2023-05-01T15:33:33.222Z,100808.25
2023-05-01T15:36:03.761Z,100803.63
2023-05-01T15:38:35.369Z,100811.50
2023-05-01T15:41:03.669Z,100805.09
2023-05-01T15:43:32.177Z,100805.19
2023-05-01T15:46:01.227Z,100803.44
2023-05-01T15:48:30.579Z,100783.09
2023-05-01T15:50:58.719Z,100773.72
2023-05-01T15:53:28.746Z,100768.28
2023-05-01T15:56:01.280Z,100765.63
2023-05-01T15:58:29.988Z,100761.97
2023-05-01T16:00:58.383Z,100764.00
2023-05-01T16:03:26.773Z,100767.50
2023-05-01T16:05:55.972Z,100760.59
2023-05-01T16:08:24.250Z,100744.69
2023-05-01T16:10:54.235Z,100755.25
2023-05-01T16:13:22.956Z,100752.53
2023-05-01T16:15:51.135Z,100747.06
2023-05-01T16:18:21.419Z,100731.31
2023-05-01T16:20:53.806Z,100741.56
2023-05-01T16:23:23.055Z,100717.75
2023-05-01T16:25:54.582Z,100732.63
2023-05-01T16:28:26.837Z,100714.34
2023-05-01T16:30:55.368Z,100715.38
2023-05-01T16:33:24.611Z,100722.13
2023-05-01T16:35:53.757Z,100709.94
2023-05-01T16:38:22.470Z,100714.25
2023-05-01T16:40:50.854Z,100710.06
2023-05-01T16:43:19.296Z,100704.59
2023-05-01T16:45:49.493Z,100707.75
2023-05-01T16:48:25.049Z,100711.56
2023-05-01T16:50:54.180Z,100707.25
2023-05-01T16:53:23.868Z,100708.88
2023-05-01T16:55:53.128Z,100700.19
2023-05-01T16:58:21.762Z,100708.19
2023-05-01T17:00:51.296Z,100696.38
2023-05-01T17:03:19.645Z,100702.41
2023-05-01T17:05:51.274Z,100700.69
2023-05-01T17:08:19.647Z,100691.03
2023-05-01T17:10:48.299Z,100695.22
2023-05-01T17:13:16.692Z,100693.31
2023-05-01T17:15:45.040Z,100702.03
2023-05-01T17:18:14.600Z,100697.00
2023-05-01T17:20:43.080Z,100700.09
2023-05-01T17:23:11.238Z,100693.84
2023-05-01T17:25:39.750Z,100686.94
2023-05-01T17:28:07.888Z,100702.84
2023-05-01T17:30:36.436Z,100685.13
2023-05-01T17:33:04.985Z,100696.94
2023-05-01T17:35:34.760Z,100698.75
2023-05-01T17:38:02.882Z,100683.47
2023-05-01T17:40:32.340Z,100690.81
2023-05-01T17:43:01.194Z,100677.78
2023-05-01T17:45:29.494Z,100682.94
2023-05-01T17:47:57.861Z,100681.22
2023-05-01T17:50:26.379Z,100679.84
2023-05-01T17:52:56.683Z,100673.09
2023-05-01T17:55:25.848Z,100679.22
2023-05-01T17:57:54.027Z,100658.00
2023-05-01T18:00:23.136Z,100664.00
2023-05-01T18:02:51.896Z,100663.97
2023-05-01T18:05:20.740Z,100671.53
2023-05-01T18:07:48.879Z,100678.53
2023-05-01T18:10:18.999Z,100672.50
2023-05-01T18:12:50.115Z,100666.56
2023-05-01T18:15:22.946Z,100677.25
2023-05-01T18:17:52.116Z,100677.09
2023-05-01T18:20:21.378Z,100679.84
2023-05-01T18:22:50.093Z,100667.78
2023-05-01T18:25:20.308Z,100672.88
2023-05-01T18:27:49.622Z,100674.56
2023-05-01T18:30:18.396Z,100685.28
2023-05-01T18:32:49.086Z,100678.91
2023-05-01T18:35:19.275Z,100682.97
2023-05-01T18:37:48.105Z,100675.88
2023-05-01T18:40:16.864Z,100680.72
2023-05-01T18:42:46.758Z,100686.34
2023-05-01T18:45:15.133Z,100672.72
2023-05-01T18:47:43.739Z,100688.63
2023-05-01T18:50:13.299Z,100676.56
2023-05-01T18:52:42.511Z,100683.53
2023-05-01T18:55:12.367Z,100660.75
2023-05-01T18:57:42.216Z,100672.72
2023-05-01T19:00:15.929Z,100678.69
2023-05-01T19:02:52.085Z,100685.56
2023-05-01T19:05:21.484Z,100686.84
2023-05-01T19:07:49.795Z,100687.41
2023-05-01T19:10:18.756Z,100682.19
2023-05-01T19:12:47.524Z,100685.13
2023-05-01T19:15:17.210Z,100678.38
2023-05-01T19:17:45.388Z,100687.09
2023-05-01T19:20:14.234Z,100683.31
2023-05-01T19:22:42.919Z,100682.56
2023-05-01T19:25:12.468Z,100688.81
2023-05-01T19:27:40.744Z,100688.75
2023-05-01T19:30:09.888Z,100693.06
2023-05-01T19:32:39.590Z,100689.03
2023-05-01T19:35:10.331Z,100695.97
2023-05-01T19:37:38.589Z,100701.19
2023-05-01T19:40:08.162Z,100697.72
2023-05-01T19:42:37.260Z,100709.34
2023-05-01T19:45:06.409Z,100692.53
2023-05-01T19:47:35.516Z,100696.22
2023-05-01T19:50:05.985Z,100697.88
2023-05-01T19:52:34.610Z,100698.06
2023-05-01T19:55:05.269Z,100698.16
2023-05-01T19:57:33.989Z,100696.16
2023-05-01T20:00:02.521Z,100696.84
2023-05-01T20:02:31.212Z,100699.88
2023-05-01T20:04:59.827Z,100708.38
2023-05-01T20:07:30.591Z,100710.97
2023-05-01T20:09:58.927Z,100704.69
2023-05-01T20:12:28.044Z,100707.13
2023-05-01T20:14:56.535Z,100699.88
2023-05-01T20:17:24.808Z,100699.97
2023-05-01T20:19:53.238Z,100685.41
2023-05-01T20:22:21.578Z,100703.34
2023-05-01T20:24:51.102Z,100700.09
2023-05-01T20:27:19.540Z,100689.50
2023-05-01T20:29:48.424Z,100693.09
2023-05-01T20:32:16.646Z,100698.44
2023-05-01T20:34:45.415Z,100707.13
2023-05-01T20:37:13.540Z,100705.72
2023-05-01T20:39:41.619Z,100716.66
2023-05-01T20:42:11.353Z,100718.09
2023-05-01T20:44:40.163Z,100702.06
2023-05-01T20:47:09.467Z,100708.91
2023-05-01T20:49:38.293Z,100692.19
2023-05-01T20:52:06.774Z,100708.91
2023-05-01T20:54:34.995Z,100713.78
2023-05-01T20:57:04.139Z,100717.28
2023-05-01T20:59:33.955Z,100731.53
2023-05-01T21:02:05.520Z,100729.66
2023-05-01T21:04:33.930Z,100722.53
2023-05-01T21:07:02.322Z,100736.91
2023-05-01T21:09:30.887Z,100751.03
2023-05-01T21:11:59.631Z,100714.38
2023-05-01T21:14:29.495Z,100758.13
2023-05-01T21:16:59.776Z,100761.84
2023-05-01T21:19:28.734Z,100759.41
2023-05-01T21:21:56.975Z,100776.09
2023-05-01T21:24:27.213Z,100778.75
2023-05-01T21:26:55.689Z,100788.41
2023-05-01T21:29:23.821Z,100791.84
2023-05-01T21:31:52.349Z,100793.72
2023-05-01T21:34:22.422Z,100784.94
2023-05-01T21:36:50.591Z,100795.34
2023-05-01T21:39:19.172Z,100797.03
2023-05-01T21:41:49.556Z,100799.72
2023-05-01T21:44:18.262Z,100799.66
2023-05-01T21:46:46.681Z,100797.84
2023-05-01T21:49:17.046Z,100797.84
2023-05-01T21:51:46.637Z,100803.19
2023-05-01T21:54:18.364Z,100811.09
2023-05-01T21:56:48.320Z,100818.00
2023-05-01T21:59:19.244Z,100821.59
2023-05-01T22:01:47.420Z,100825.16
2023-05-01T22:04:19.027Z,100828.69
2023-05-01T22:06:49.525Z,100833.94
2023-05-01T22:09:17.688Z,100833.09
2023-05-01T22:11:46.108Z,100830.41
2023-05-01T22:14:14.587Z,100833.94
2023-05-01T22:16:42.698Z,100835.66
2023-05-01T22:19:10.987Z,100849.78
2023-05-01T22:21:39.287Z,100840.09
2023-05-01T22:24:08.990Z,100848.84
2023-05-01T22:26:37.546Z,100850.59
2023-05-01T22:29:06.520Z,100862.91
2023-05-01T22:31:34.726Z,100858.50
2023-05-01T22:34:03.334Z,100867.31
2023-05-01T22:36:31.839Z,100851.56
2023-05-01T22:38:59.875Z,100858.50
2023-05-01T22:41:29.529Z,100851.56
2023-05-01T22:43:58.382Z,100856.81
2023-05-01T22:46:27.254Z,100851.56
2023-05-01T22:48:55.795Z,100867.34
2023-05-01T22:51:24.183Z,100853.34
2023-05-01T22:53:52.352Z,100869.16
2023-05-01T22:56:21.090Z,100875.28
2023-05-01T22:58:51.072Z,100870.91
2023-05-01T23:01:19.438Z,100877.88
2023-05-01T23:03:48.368Z,100891.94
2023-05-01T23:06:16.848Z,100874.44
2023-05-01T23:08:45.303Z,100887.56
2023-05-01T23:11:17.419Z,100898.06
2023-05-01T23:13:49.142Z,100884.94
2023-05-01T23:16:19.327Z,100905.94
2023-05-01T23:18:47.525Z,100897.19
2023-05-01T23:21:18.627Z,100898.97
2023-05-01T23:23:48.720Z,100915.63
2023-05-01T23:26:25.667Z,100920.03
2023-05-01T23:28:54.636Z,100916.50
2023-05-01T23:31:26.715Z,100934.00
2023-05-01T23:33:55.625Z,100930.53
2023-05-01T23:36:23.866Z,100934.03
2023-05-01T23:38:51.983Z,100914.72
2023-05-01T23:41:20.647Z,100916.47
2023-05-01T23:43:48.945Z,100937.56
2023-05-01T23:46:17.778Z,100942.75
2023-05-01T23:48:47.899Z,100948.06
2023-05-01T23:51:16.184Z,100948.03
2023-05-01T23:53:44.421Z,100958.56
2023-05-01T23:56:12.802Z,100967.31
2023-05-01T23:58:43.800Z,100963.81
